sensor_id;sensor_type;location;lat;lon;timestamp;P1;durP1;ratioP1;P2;durP2;ratioP2
16862;SDS011;52193;48.216;-1.698;2023-11-19T00:00:04;71.90;;;65.50;;
16862;SDS011;52193;48.216;-1.698;2023-11-19T00:02:36;70.60;;;64.18;;
16862;SDS011;52193;48.216;-1.698;2023-11-19T00:05:04;68.05;;;61.72;;
16862;SDS011;52193;48.216;-1.698;2023-11-19T00:07:34;66.82;;;60.53;;
16862;SDS011;52193;48.216;-1.698;2023-11-19T00:10:02;68.15;;;61.95;;
16862;SDS011;52193;48.216;-1.698;2023-11-19T00:12:36;67.25;;;60.85;;
16862;SDS011;52193;48.216;-1.698;2023-11-19T00:15:03;66.78;;;60.10;;
16862;SDS011;52193;48.216;-1.698;2023-11-19T00:17:31;63.10;;;57.05;;
16862;SDS011;52193;48.216;-1.698;2023-11-19T00:19:57;63.35;;;57.47;;
16862;SDS011;52193;48.216;-1.698;2023-11-19T00:22:26;63.67;;;57.40;;
16862;SDS011;52193;48.216;-1.698;2023-11-19T00:24:53;61.45;;;55.80;;
16862;SDS011;52193;48.216;-1.698;2023-11-19T00:27:19;63.28;;;57.08;;
16862;SDS011;52193;48.216;-1.698;2023-11-19T00:29:46;64.38;;;58.13;;
16862;SDS011;52193;48.216;-1.698;2023-11-19T00:32:13;58.97;;;53.17;;
16862;SDS011;52193;48.216;-1.698;2023-11-19T00:34:40;57.00;;;51.22;;
16862;SDS011;52193;48.216;-1.698;2023-11-19T00:37:09;58.28;;;52.67;;
16862;SDS011;52193;48.216;-1.698;2023-11-19T00:39:37;57.92;;;52.20;;
16862;SDS011;52193;48.216;-1.698;2023-11-19T00:42:04;56.40;;;51.08;;
16862;SDS011;52193;48.216;-1.698;2023-11-19T00:44:31;54.90;;;49.25;;
16862;SDS011;52193;48.216;-1.698;2023-11-19T00:46:58;56.10;;;50.22;;
16862;SDS011;52193;48.216;-1.698;2023-11-19T00:49:25;54.17;;;48.45;;
16862;SDS011;52193;48.216;-1.698;2023-11-19T00:51:52;54.83;;;48.90;;
16862;SDS011;52193;48.216;-1.698;2023-11-19T00:54:19;55.65;;;49.90;;
16862;SDS011;52193;48.216;-1.698;2023-11-19T00:56:50;54.20;;;48.80;;
16862;SDS011;52193;48.216;-1.698;2023-11-19T00:59:17;53.33;;;47.83;;
16862;SDS011;52193;48.216;-1.698;2023-11-19T01:01:44;52.63;;;47.35;;
16862;SDS011;52193;48.216;-1.698;2023-11-19T01:04:11;53.20;;;47.75;;
16862;SDS011;52193;48.216;-1.698;2023-11-19T01:06:38;53.70;;;47.10;;
16862;SDS011;52193;48.216;-1.698;2023-11-19T01:09:04;52.03;;;46.35;;
16862;SDS011;52193;48.216;-1.698;2023-11-19T01:11:33;51.75;;;46.45;;
16862;SDS011;52193;48.216;-1.698;2023-11-19T01:14:01;53.30;;;46.00;;
16862;SDS011;52193;48.216;-1.698;2023-11-19T01:16:28;53.17;;;47.80;;
16862;SDS011;52193;48.216;-1.698;2023-11-19T01:18:55;53.15;;;47.63;;
16862;SDS011;52193;48.216;-1.698;2023-11-19T01:21:22;52.58;;;47.08;;
16862;SDS011;52193;48.216;-1.698;2023-11-19T01:23:49;53.40;;;47.03;;
16862;SDS011;52193;48.216;-1.698;2023-11-19T01:26:16;54.08;;;48.42;;
16862;SDS011;52193;48.216;-1.698;2023-11-19T01:28:43;55.22;;;48.67;;
16862;SDS011;52193;48.216;-1.698;2023-11-19T01:31:14;54.63;;;47.88;;
16862;SDS011;52193;48.216;-1.698;2023-11-19T01:33:41;54.70;;;48.40;;
16862;SDS011;52193;48.216;-1.698;2023-11-19T01:36:08;56.80;;;47.10;;
16862;SDS011;52193;48.216;-1.698;2023-11-19T01:38:38;56.97;;;47.40;;
16862;SDS011;52193;48.216;-1.698;2023-11-19T01:41:05;55.00;;;47.58;;
16862;SDS011;52193;48.216;-1.698;2023-11-19T01:43:33;54.88;;;48.97;;
16862;SDS011;52193;48.216;-1.698;2023-11-19T01:46:00;53.63;;;46.88;;
16862;SDS011;52193;48.216;-1.698;2023-11-19T01:48:29;57.03;;;49.95;;
16862;SDS011;52193;48.216;-1.698;2023-11-19T01:50:59;55.67;;;47.55;;
16862;SDS011;52193;48.216;-1.698;2023-11-19T01:53:27;54.30;;;48.50;;
16862;SDS011;52193;48.216;-1.698;2023-11-19T01:55:55;56.15;;;48.35;;
16862;SDS011;52193;48.216;-1.698;2023-11-19T01:58:23;55.70;;;45.55;;
16862;SDS011;52193;48.216;-1.698;2023-11-19T02:00:50;59.67;;;47.40;;
16862;SDS011;52193;48.216;-1.698;2023-11-19T02:03:17;60.70;;;47.40;;
16862;SDS011;52193;48.216;-1.698;2023-11-19T02:05:46;57.75;;;46.72;;
16862;SDS011;52193;48.216;-1.698;2023-11-19T02:08:15;58.85;;;47.03;;
16862;SDS011;52193;48.216;-1.698;2023-11-19T02:10:42;54.78;;;47.38;;
16862;SDS011;52193;48.216;-1.698;2023-11-19T02:13:09;57.88;;;47.95;;
16862;SDS011;52193;48.216;-1.698;2023-11-19T02:15:38;62.15;;;48.88;;
16862;SDS011;52193;48.216;-1.698;2023-11-19T02:18:18;53.55;;;47.53;;
16862;SDS011;52193;48.216;-1.698;2023-11-19T02:20:48;56.35;;;43.35;;
16862;SDS011;52193;48.216;-1.698;2023-11-19T02:23:15;54.33;;;42.90;;
16862;SDS011;52193;48.216;-1.698;2023-11-19T02:25:46;54.67;;;43.60;;
16862;SDS011;52193;48.216;-1.698;2023-11-19T02:28:18;60.22;;;44.13;;
16862;SDS011;52193;48.216;-1.698;2023-11-19T02:30:45;54.75;;;42.03;;
16862;SDS011;52193;48.216;-1.698;2023-11-19T02:33:12;57.95;;;42.63;;
16862;SDS011;52193;48.216;-1.698;2023-11-19T02:35:40;52.40;;;42.45;;
16862;SDS011;52193;48.216;-1.698;2023-11-19T02:38:07;55.15;;;43.97;;
16862;SDS011;52193;48.216;-1.698;2023-11-19T02:40:34;56.08;;;45.03;;
16862;SDS011;52193;48.216;-1.698;2023-11-19T02:43:01;57.17;;;45.10;;
16862;SDS011;52193;48.216;-1.698;2023-11-19T02:45:31;55.70;;;44.03;;
16862;SDS011;52193;48.216;-1.698;2023-11-19T02:47:58;58.65;;;44.58;;
16862;SDS011;52193;48.216;-1.698;2023-11-19T02:50:27;57.53;;;44.75;;
16862;SDS011;52193;48.216;-1.698;2023-11-19T02:52:54;55.50;;;44.05;;
16862;SDS011;52193;48.216;-1.698;2023-11-19T02:55:22;60.40;;;45.33;;
16862;SDS011;52193;48.216;-1.698;2023-11-19T02:57:49;55.38;;;44.78;;
16862;SDS011;52193;48.216;-1.698;2023-11-19T03:00:18;56.58;;;44.15;;
16862;SDS011;52193;48.216;-1.698;2023-11-19T03:02:50;61.05;;;43.90;;
16862;SDS011;52193;48.216;-1.698;2023-11-19T03:05:24;60.78;;;44.70;;
16862;SDS011;52193;48.216;-1.698;2023-11-19T03:07:54;59.67;;;44.08;;
16862;SDS011;52193;48.216;-1.698;2023-11-19T03:10:21;52.42;;;43.33;;
16862;SDS011;52193;48.216;-1.698;2023-11-19T03:12:49;55.88;;;43.20;;
16862;SDS011;52193;48.216;-1.698;2023-11-19T03:15:16;60.42;;;44.50;;
16862;SDS011;52193;48.216;-1.698;2023-11-19T03:17:43;58.53;;;43.90;;
16862;SDS011;52193;48.216;-1.698;2023-11-19T03:20:12;53.83;;;43.50;;
16862;SDS011;52193;48.216;-1.698;2023-11-19T03:22:40;52.83;;;43.80;;
16862;SDS011;52193;48.216;-1.698;2023-11-19T03:25:09;56.08;;;44.92;;
16862;SDS011;52193;48.216;-1.698;2023-11-19T03:27:36;57.08;;;43.67;;
16862;SDS011;52193;48.216;-1.698;2023-11-19T03:30:04;55.22;;;42.65;;
16862;SDS011;52193;48.216;-1.698;2023-11-19T03:32:31;52.03;;;42.47;;
16862;SDS011;52193;48.216;-1.698;2023-11-19T03:35:00;56.63;;;43.20;;
16862;SDS011;52193;48.216;-1.698;2023-11-19T03:37:28;54.42;;;42.70;;
16862;SDS011;52193;48.216;-1.698;2023-11-19T03:39:54;51.53;;;43.03;;
16862;SDS011;52193;48.216;-1.698;2023-11-19T03:42:24;52.97;;;42.83;;
16862;SDS011;52193;48.216;-1.698;2023-11-19T03:44:51;54.45;;;43.13;;
16862;SDS011;52193;48.216;-1.698;2023-11-19T03:47:18;53.00;;;42.28;;
16862;SDS011;52193;48.216;-1.698;2023-11-19T03:49:46;54.67;;;43.92;;
16862;SDS011;52193;48.216;-1.698;2023-11-19T03:52:14;50.95;;;43.10;;
16862;SDS011;52193;48.216;-1.698;2023-11-19T03:54:42;56.60;;;43.38;;
16862;SDS011;52193;48.216;-1.698;2023-11-19T03:57:10;56.15;;;44.22;;
16862;SDS011;52193;48.216;-1.698;2023-11-19T03:59:37;58.90;;;42.88;;
16862;SDS011;52193;48.216;-1.698;2023-11-19T04:02:04;58.33;;;42.63;;
16862;SDS011;52193;48.216;-1.698;2023-11-19T04:04:31;57.63;;;42.15;;
16862;SDS011;52193;48.216;-1.698;2023-11-19T04:06:59;53.20;;;41.17;;
16862;SDS011;52193;48.216;-1.698;2023-11-19T04:09:27;54.92;;;42.00;;
16862;SDS011;52193;48.216;-1.698;2023-11-19T04:11:56;51.45;;;41.70;;
16862;SDS011;52193;48.216;-1.698;2023-11-19T04:14:22;56.13;;;41.25;;
16862;SDS011;52193;48.216;-1.698;2023-11-19T04:16:49;55.30;;;42.15;;
16862;SDS011;52193;48.216;-1.698;2023-11-19T04:19:17;53.88;;;42.00;;
16862;SDS011;52193;48.216;-1.698;2023-11-19T04:21:44;57.25;;;43.42;;
16862;SDS011;52193;48.216;-1.698;2023-11-19T04:24:11;57.03;;;43.17;;
16862;SDS011;52193;48.216;-1.698;2023-11-19T04:26:40;60.00;;;44.95;;
16862;SDS011;52193;48.216;-1.698;2023-11-19T04:29:09;63.90;;;45.65;;
16862;SDS011;52193;48.216;-1.698;2023-11-19T04:31:37;61.47;;;43.70;;
16862;SDS011;52193;48.216;-1.698;2023-11-19T04:34:05;64.20;;;45.47;;
16862;SDS011;52193;48.216;-1.698;2023-11-19T04:36:32;65.80;;;46.20;;
16862;SDS011;52193;48.216;-1.698;2023-11-19T04:38:59;59.78;;;44.25;;
16862;SDS011;52193;48.216;-1.698;2023-11-19T04:41:27;56.80;;;43.72;;
16862;SDS011;52193;48.216;-1.698;2023-11-19T04:43:54;60.95;;;44.42;;
16862;SDS011;52193;48.216;-1.698;2023-11-19T04:46:22;60.95;;;43.58;;
16862;SDS011;52193;48.216;-1.698;2023-11-19T04:48:49;57.53;;;43.05;;
16862;SDS011;52193;48.216;-1.698;2023-11-19T04:51:16;59.40;;;44.45;;
16862;SDS011;52193;48.216;-1.698;2023-11-19T04:53:43;54.30;;;42.03;;
16862;SDS011;52193;48.216;-1.698;2023-11-19T04:56:10;53.67;;;41.75;;
16862;SDS011;52193;48.216;-1.698;2023-11-19T04:58:38;59.53;;;41.08;;
16862;SDS011;52193;48.216;-1.698;2023-11-19T05:01:05;60.30;;;41.33;;
16862;SDS011;52193;48.216;-1.698;2023-11-19T05:03:33;56.38;;;39.30;;
16862;SDS011;52193;48.216;-1.698;2023-11-19T05:06:01;59.28;;;40.50;;
16862;SDS011;52193;48.216;-1.698;2023-11-19T05:08:28;61.90;;;40.65;;
16862;SDS011;52193;48.216;-1.698;2023-11-19T05:10:55;63.20;;;40.75;;
16862;SDS011;52193;48.216;-1.698;2023-11-19T05:13:22;59.85;;;40.83;;
16862;SDS011;52193;48.216;-1.698;2023-11-19T05:15:49;53.90;;;39.78;;
16862;SDS011;52193;48.216;-1.698;2023-11-19T05:18:16;57.40;;;39.38;;
16862;SDS011;52193;48.216;-1.698;2023-11-19T05:20:44;57.08;;;40.53;;
16862;SDS011;52193;48.216;-1.698;2023-11-19T05:23:11;55.72;;;39.33;;
16862;SDS011;52193;48.216;-1.698;2023-11-19T05:25:38;54.33;;;39.75;;
16862;SDS011;52193;48.216;-1.698;2023-11-19T05:28:05;57.70;;;40.92;;
16862;SDS011;52193;48.216;-1.698;2023-11-19T05:30:33;52.47;;;39.75;;
16862;SDS011;52193;48.216;-1.698;2023-11-19T05:33:00;56.97;;;40.05;;
16862;SDS011;52193;48.216;-1.698;2023-11-19T05:35:27;64.57;;;41.10;;
16862;SDS011;52193;48.216;-1.698;2023-11-19T05:37:55;59.90;;;40.63;;
16862;SDS011;52193;48.216;-1.698;2023-11-19T05:40:22;61.35;;;41.13;;
16862;SDS011;52193;48.216;-1.698;2023-11-19T05:42:48;63.55;;;40.25;;
16862;SDS011;52193;48.216;-1.698;2023-11-19T05:45:15;60.85;;;40.97;;
16862;SDS011;52193;48.216;-1.698;2023-11-19T05:47:42;56.35;;;41.13;;
16862;SDS011;52193;48.216;-1.698;2023-11-19T05:50:09;60.00;;;42.08;;
16862;SDS011;52193;48.216;-1.698;2023-11-19T05:52:36;63.65;;;42.50;;
16862;SDS011;52193;48.216;-1.698;2023-11-19T05:55:05;58.38;;;41.33;;
16862;SDS011;52193;48.216;-1.698;2023-11-19T05:57:34;59.67;;;41.42;;
16862;SDS011;52193;48.216;-1.698;2023-11-19T06:00:02;65.82;;;42.22;;
16862;SDS011;52193;48.216;-1.698;2023-11-19T06:02:32;63.90;;;41.25;;
16862;SDS011;52193;48.216;-1.698;2023-11-19T06:04:59;60.13;;;40.88;;
16862;SDS011;52193;48.216;-1.698;2023-11-19T06:07:26;60.25;;;41.83;;
16862;SDS011;52193;48.216;-1.698;2023-11-19T06:09:53;63.50;;;40.83;;
16862;SDS011;52193;48.216;-1.698;2023-11-19T06:12:21;62.17;;;41.13;;
16862;SDS011;52193;48.216;-1.698;2023-11-19T06:14:48;59.47;;;41.88;;
16862;SDS011;52193;48.216;-1.698;2023-11-19T06:17:15;65.28;;;41.85;;
16862;SDS011;52193;48.216;-1.698;2023-11-19T06:19:42;58.08;;;41.28;;
16862;SDS011;52193;48.216;-1.698;2023-11-19T06:22:10;63.45;;;41.83;;
16862;SDS011;52193;48.216;-1.698;2023-11-19T06:24:37;63.58;;;42.28;;
16862;SDS011;52193;48.216;-1.698;2023-11-19T06:27:03;60.85;;;41.25;;
16862;SDS011;52193;48.216;-1.698;2023-11-19T06:29:32;63.10;;;41.53;;
16862;SDS011;52193;48.216;-1.698;2023-11-19T06:31:58;62.67;;;40.80;;
16862;SDS011;52193;48.216;-1.698;2023-11-19T06:34:25;62.33;;;41.05;;
16862;SDS011;52193;48.216;-1.698;2023-11-19T06:36:52;64.13;;;41.08;;
16862;SDS011;52193;48.216;-1.698;2023-11-19T06:39:19;65.95;;;41.05;;
16862;SDS011;52193;48.216;-1.698;2023-11-19T06:41:46;61.25;;;41.92;;
16862;SDS011;52193;48.216;-1.698;2023-11-19T06:44:13;59.70;;;40.13;;
16862;SDS011;52193;48.216;-1.698;2023-11-19T06:46:41;59.03;;;40.75;;
16862;SDS011;52193;48.216;-1.698;2023-11-19T06:49:08;58.30;;;40.88;;
16862;SDS011;52193;48.216;-1.698;2023-11-19T06:51:35;60.70;;;40.65;;
16862;SDS011;52193;48.216;-1.698;2023-11-19T06:54:06;59.65;;;40.13;;
16862;SDS011;52193;48.216;-1.698;2023-11-19T06:56:33;61.13;;;41.13;;
16862;SDS011;52193;48.216;-1.698;2023-11-19T06:59:00;57.10;;;40.53;;
16862;SDS011;52193;48.216;-1.698;2023-11-19T07:01:27;57.88;;;40.10;;
16862;SDS011;52193;48.216;-1.698;2023-11-19T07:03:55;60.38;;;39.95;;
16862;SDS011;52193;48.216;-1.698;2023-11-19T07:06:23;59.08;;;38.67;;
16862;SDS011;52193;48.216;-1.698;2023-11-19T07:08:49;60.38;;;38.95;;
16862;SDS011;52193;48.216;-1.698;2023-11-19T07:11:16;64.43;;;40.05;;
16862;SDS011;52193;48.216;-1.698;2023-11-19T07:13:43;65.55;;;40.25;;
16862;SDS011;52193;48.216;-1.698;2023-11-19T07:16:11;59.38;;;39.65;;
16862;SDS011;52193;48.216;-1.698;2023-11-19T07:18:40;62.63;;;40.08;;
16862;SDS011;52193;48.216;-1.698;2023-11-19T07:21:08;54.95;;;39.65;;
16862;SDS011;52193;48.216;-1.698;2023-11-19T07:23:35;63.17;;;39.85;;
16862;SDS011;52193;48.216;-1.698;2023-11-19T07:26:04;60.15;;;39.60;;
16862;SDS011;52193;48.216;-1.698;2023-11-19T07:28:33;60.97;;;40.42;;
16862;SDS011;52193;48.216;-1.698;2023-11-19T07:31:00;60.08;;;39.53;;
16862;SDS011;52193;48.216;-1.698;2023-11-19T07:33:27;58.60;;;40.10;;
16862;SDS011;52193;48.216;-1.698;2023-11-19T07:35:54;54.85;;;38.88;;
16862;SDS011;52193;48.216;-1.698;2023-11-19T07:38:23;54.83;;;39.20;;
16862;SDS011;52193;48.216;-1.698;2023-11-19T07:40:50;58.03;;;39.15;;
16862;SDS011;52193;48.216;-1.698;2023-11-19T07:43:17;64.13;;;39.75;;
16862;SDS011;52193;48.216;-1.698;2023-11-19T07:45:44;60.60;;;38.78;;
16862;SDS011;52193;48.216;-1.698;2023-11-19T07:48:11;53.90;;;38.78;;
16862;SDS011;52193;48.216;-1.698;2023-11-19T07:50:39;53.65;;;38.70;;
16862;SDS011;52193;48.216;-1.698;2023-11-19T07:53:06;56.53;;;38.95;;
16862;SDS011;52193;48.216;-1.698;2023-11-19T07:55:35;59.40;;;39.00;;
16862;SDS011;52193;48.216;-1.698;2023-11-19T07:58:02;57.70;;;39.75;;
16862;SDS011;52193;48.216;-1.698;2023-11-19T08:00:29;54.85;;;39.30;;
16862;SDS011;52193;48.216;-1.698;2023-11-19T08:02:55;55.47;;;39.55;;
16862;SDS011;52193;48.216;-1.698;2023-11-19T08:05:22;63.92;;;40.83;;
16862;SDS011;52193;48.216;-1.698;2023-11-19T08:07:49;58.88;;;40.90;;
16862;SDS011;52193;48.216;-1.698;2023-11-19T08:10:18;61.72;;;39.72;;
16862;SDS011;52193;48.216;-1.698;2023-11-19T08:12:46;61.22;;;41.13;;
16862;SDS011;52193;48.216;-1.698;2023-11-19T08:15:13;54.03;;;41.10;;
16862;SDS011;52193;48.216;-1.698;2023-11-19T08:17:40;60.83;;;41.50;;
16862;SDS011;52193;48.216;-1.698;2023-11-19T08:20:08;59.05;;;41.67;;
16862;SDS011;52193;48.216;-1.698;2023-11-19T08:22:35;62.28;;;41.60;;
16862;SDS011;52193;48.216;-1.698;2023-11-19T08:25:02;59.95;;;41.55;;
16862;SDS011;52193;48.216;-1.698;2023-11-19T08:27:30;59.20;;;42.53;;
16862;SDS011;52193;48.216;-1.698;2023-11-19T08:29:58;65.35;;;43.97;;
16862;SDS011;52193;48.216;-1.698;2023-11-19T08:32:25;61.85;;;43.90;;
16862;SDS011;52193;48.216;-1.698;2023-11-19T08:34:52;61.55;;;43.65;;
16862;SDS011;52193;48.216;-1.698;2023-11-19T08:37:21;58.40;;;43.13;;
16862;SDS011;52193;48.216;-1.698;2023-11-19T08:39:48;64.05;;;44.65;;
16862;SDS011;52193;48.216;-1.698;2023-11-19T08:42:15;61.83;;;43.58;;
16862;SDS011;52193;48.216;-1.698;2023-11-19T08:44:42;59.88;;;43.78;;
16862;SDS011;52193;48.216;-1.698;2023-11-19T08:47:13;67.70;;;45.65;;
16862;SDS011;52193;48.216;-1.698;2023-11-19T08:49:41;64.70;;;44.35;;
16862;SDS011;52193;48.216;-1.698;2023-11-19T08:52:07;69.88;;;48.35;;
16862;SDS011;52193;48.216;-1.698;2023-11-19T08:54:35;62.53;;;46.25;;
16862;SDS011;52193;48.216;-1.698;2023-11-19T08:57:02;63.50;;;45.83;;
16862;SDS011;52193;48.216;-1.698;2023-11-19T08:59:29;63.95;;;46.53;;
16862;SDS011;52193;48.216;-1.698;2023-11-19T09:01:56;73.40;;;47.08;;
16862;SDS011;52193;48.216;-1.698;2023-11-19T09:04:24;65.18;;;45.55;;
16862;SDS011;52193;48.216;-1.698;2023-11-19T09:06:51;67.57;;;46.75;;
16862;SDS011;52193;48.216;-1.698;2023-11-19T09:09:18;71.53;;;47.13;;
16862;SDS011;52193;48.216;-1.698;2023-11-19T09:11:45;70.38;;;48.10;;
16862;SDS011;52193;48.216;-1.698;2023-11-19T09:14:11;73.03;;;48.72;;
16862;SDS011;52193;48.216;-1.698;2023-11-19T09:16:38;69.57;;;47.05;;
16862;SDS011;52193;48.216;-1.698;2023-11-19T09:19:05;67.63;;;46.63;;
16862;SDS011;52193;48.216;-1.698;2023-11-19T09:21:33;68.53;;;46.45;;
16862;SDS011;52193;48.216;-1.698;2023-11-19T09:24:03;65.80;;;44.90;;
16862;SDS011;52193;48.216;-1.698;2023-11-19T09:26:32;63.47;;;46.53;;
16862;SDS011;52193;48.216;-1.698;2023-11-19T09:28:59;71.88;;;47.42;;
16862;SDS011;52193;48.216;-1.698;2023-11-19T09:31:26;65.57;;;45.67;;
16862;SDS011;52193;48.216;-1.698;2023-11-19T09:33:53;67.88;;;44.63;;
16862;SDS011;52193;48.216;-1.698;2023-11-19T09:36:20;67.07;;;46.17;;
16862;SDS011;52193;48.216;-1.698;2023-11-19T09:38:48;69.03;;;45.00;;
16862;SDS011;52193;48.216;-1.698;2023-11-19T09:41:15;64.60;;;45.67;;
16862;SDS011;52193;48.216;-1.698;2023-11-19T09:43:44;65.78;;;44.90;;
16862;SDS011;52193;48.216;-1.698;2023-11-19T09:46:12;58.75;;;45.05;;
16862;SDS011;52193;48.216;-1.698;2023-11-19T09:48:41;62.38;;;43.80;;
16862;SDS011;52193;48.216;-1.698;2023-11-19T09:51:10;63.58;;;41.78;;
16862;SDS011;52193;48.216;-1.698;2023-11-19T09:53:37;63.17;;;43.65;;
16862;SDS011;52193;48.216;-1.698;2023-11-19T09:56:06;65.32;;;43.20;;
16862;SDS011;52193;48.216;-1.698;2023-11-19T09:58:34;62.67;;;43.17;;
16862;SDS011;52193;48.216;-1.698;2023-11-19T10:01:01;60.70;;;42.35;;
16862;SDS011;52193;48.216;-1.698;2023-11-19T10:03:32;66.50;;;42.05;;
16862;SDS011;52193;48.216;-1.698;2023-11-19T10:06:00;65.93;;;41.95;;
16862;SDS011;52193;48.216;-1.698;2023-11-19T10:08:27;55.00;;;42.00;;
16862;SDS011;52193;48.216;-1.698;2023-11-19T10:10:54;58.55;;;42.05;;
16862;SDS011;52193;48.216;-1.698;2023-11-19T10:13:26;59.22;;;41.45;;
16862;SDS011;52193;48.216;-1.698;2023-11-19T10:15:55;57.83;;;41.65;;
16862;SDS011;52193;48.216;-1.698;2023-11-19T10:18:23;55.78;;;39.65;;
16862;SDS011;52193;48.216;-1.698;2023-11-19T10:20:51;60.10;;;40.65;;
16862;SDS011;52193;48.216;-1.698;2023-11-19T10:23:20;53.10;;;39.10;;
16862;SDS011;52193;48.216;-1.698;2023-11-19T10:25:47;65.38;;;39.95;;
16862;SDS011;52193;48.216;-1.698;2023-11-19T10:28:14;57.58;;;38.90;;
16862;SDS011;52193;48.216;-1.698;2023-11-19T10:30:43;53.78;;;38.25;;
16862;SDS011;52193;48.216;-1.698;2023-11-19T10:33:10;53.03;;;37.90;;
16862;SDS011;52193;48.216;-1.698;2023-11-19T10:35:50;52.20;;;36.95;;
16862;SDS011;52193;48.216;-1.698;2023-11-19T10:38:18;58.20;;;38.47;;
16862;SDS011;52193;48.216;-1.698;2023-11-19T10:40:45;50.33;;;35.67;;
16862;SDS011;52193;48.216;-1.698;2023-11-19T10:43:12;49.78;;;35.38;;
16862;SDS011;52193;48.216;-1.698;2023-11-19T10:45:40;49.08;;;34.55;;
16862;SDS011;52193;48.216;-1.698;2023-11-19T10:48:08;52.03;;;33.72;;
16862;SDS011;52193;48.216;-1.698;2023-11-19T10:50:36;46.83;;;33.33;;
16862;SDS011;52193;48.216;-1.698;2023-11-19T10:53:04;49.53;;;33.80;;
16862;SDS011;52193;48.216;-1.698;2023-11-19T10:55:32;50.28;;;34.33;;
16862;SDS011;52193;48.216;-1.698;2023-11-19T10:58:02;48.65;;;33.85;;
16862;SDS011;52193;48.216;-1.698;2023-11-19T11:00:36;49.65;;;31.92;;
16862;SDS011;52193;48.216;-1.698;2023-11-19T11:03:08;47.78;;;30.85;;
16862;SDS011;52193;48.216;-1.698;2023-11-19T11:05:37;46.03;;;30.45;;
16862;SDS011;52193;48.216;-1.698;2023-11-19T11:08:05;45.22;;;31.73;;
16862;SDS011;52193;48.216;-1.698;2023-11-19T11:10:34;47.58;;;31.60;;
16862;SDS011;52193;48.216;-1.698;2023-11-19T11:13:08;53.45;;;31.63;;
16862;SDS011;52193;48.216;-1.698;2023-11-19T11:15:37;43.50;;;30.60;;
16862;SDS011;52193;48.216;-1.698;2023-11-19T11:18:04;40.97;;;30.73;;
16862;SDS011;52193;48.216;-1.698;2023-11-19T11:20:36;45.17;;;30.98;;
16862;SDS011;52193;48.216;-1.698;2023-11-19T11:25:59;41.95;;;30.10;;
16862;SDS011;52193;48.216;-1.698;2023-11-19T11:28:39;43.83;;;30.63;;
16862;SDS011;52193;48.216;-1.698;2023-11-19T11:31:15;47.95;;;29.30;;
16862;SDS011;52193;48.216;-1.698;2023-11-19T11:34:01;44.08;;;28.77;;
16862;SDS011;52193;48.216;-1.698;2023-11-19T11:36:53;47.75;;;30.10;;
16862;SDS011;52193;48.216;-1.698;2023-11-19T11:39:28;43.60;;;29.00;;
16862;SDS011;52193;48.216;-1.698;2023-11-19T11:44:58;42.45;;;29.20;;
16862;SDS011;52193;48.216;-1.698;2023-11-19T11:47:33;42.60;;;28.38;;
16862;SDS011;52193;48.216;-1.698;2023-11-19T11:50:48;43.78;;;28.58;;
16862;SDS011;52193;48.216;-1.698;2023-11-19T11:53:17;39.03;;;28.58;;
16862;SDS011;52193;48.216;-1.698;2023-11-19T11:55:54;43.83;;;28.55;;
16862;SDS011;52193;48.216;-1.698;2023-11-19T11:58:31;39.80;;;28.75;;
16862;SDS011;52193;48.216;-1.698;2023-11-19T12:01:01;39.78;;;28.30;;
16862;SDS011;52193;48.216;-1.698;2023-11-19T12:03:31;37.63;;;27.63;;
16862;SDS011;52193;48.216;-1.698;2023-11-19T12:06:00;37.83;;;27.45;;
16862;SDS011;52193;48.216;-1.698;2023-11-19T12:08:28;42.53;;;28.30;;
16862;SDS011;52193;48.216;-1.698;2023-11-19T12:10:57;39.28;;;27.05;;
16862;SDS011;52193;48.216;-1.698;2023-11-19T12:13:26;40.42;;;27.65;;
16862;SDS011;52193;48.216;-1.698;2023-11-19T12:16:10;35.72;;;27.23;;
16862;SDS011;52193;48.216;-1.698;2023-11-19T12:18:40;38.03;;;27.55;;
16862;SDS011;52193;48.216;-1.698;2023-11-19T12:21:09;35.80;;;26.73;;
16862;SDS011;52193;48.216;-1.698;2023-11-19T12:23:43;37.80;;;27.48;;
16862;SDS011;52193;48.216;-1.698;2023-11-19T12:29:02;35.58;;;26.35;;
16862;SDS011;52193;48.216;-1.698;2023-11-19T12:31:32;36.05;;;26.95;;
16862;SDS011;52193;48.216;-1.698;2023-11-19T12:34:07;42.13;;;27.65;;
16862;SDS011;52193;48.216;-1.698;2023-11-19T12:36:38;37.33;;;27.55;;
16862;SDS011;52193;48.216;-1.698;2023-11-19T12:39:06;39.15;;;27.45;;
16862;SDS011;52193;48.216;-1.698;2023-11-19T12:41:48;39.13;;;28.05;;
16862;SDS011;52193;48.216;-1.698;2023-11-19T12:44:16;41.60;;;28.08;;
16862;SDS011;52193;48.216;-1.698;2023-11-19T12:46:42;42.88;;;28.60;;
16862;SDS011;52193;48.216;-1.698;2023-11-19T12:49:10;40.95;;;27.40;;
16862;SDS011;52193;48.216;-1.698;2023-11-19T12:51:39;36.58;;;26.73;;
16862;SDS011;52193;48.216;-1.698;2023-11-19T12:54:06;38.90;;;26.13;;
16862;SDS011;52193;48.216;-1.698;2023-11-19T12:56:33;35.25;;;26.52;;
16862;SDS011;52193;48.216;-1.698;2023-11-19T12:59:09;35.88;;;26.48;;
16862;SDS011;52193;48.216;-1.698;2023-11-19T13:01:37;34.78;;;26.45;;
16862;SDS011;52193;48.216;-1.698;2023-11-19T13:04:15;34.10;;;25.60;;
16862;SDS011;52193;48.216;-1.698;2023-11-19T13:06:45;34.03;;;26.08;;
16862;SDS011;52193;48.216;-1.698;2023-11-19T13:09:21;31.92;;;26.20;;
16862;SDS011;52193;48.216;-1.698;2023-11-19T13:11:48;37.88;;;27.08;;
16862;SDS011;52193;48.216;-1.698;2023-11-19T13:14:14;35.47;;;26.25;;
16862;SDS011;52193;48.216;-1.698;2023-11-19T13:16:41;34.95;;;25.48;;
16862;SDS011;52193;48.216;-1.698;2023-11-19T13:19:07;33.00;;;25.38;;
16862;SDS011;52193;48.216;-1.698;2023-11-19T13:21:34;34.65;;;25.02;;
16862;SDS011;52193;48.216;-1.698;2023-11-19T13:24:03;33.38;;;25.13;;
16862;SDS011;52193;48.216;-1.698;2023-11-19T13:26:30;29.73;;;25.20;;
16862;SDS011;52193;48.216;-1.698;2023-11-19T13:28:57;36.17;;;25.67;;
16862;SDS011;52193;48.216;-1.698;2023-11-19T13:31:24;32.78;;;24.60;;
16862;SDS011;52193;48.216;-1.698;2023-11-19T13:33:52;26.88;;;24.02;;
16862;SDS011;52193;48.216;-1.698;2023-11-19T13:36:19;27.20;;;23.42;;
16862;SDS011;52193;48.216;-1.698;2023-11-19T13:38:45;30.15;;;23.45;;
16862;SDS011;52193;48.216;-1.698;2023-11-19T13:41:14;24.92;;;22.25;;
16862;SDS011;52193;48.216;-1.698;2023-11-19T13:43:41;27.88;;;21.05;;
16862;SDS011;52193;48.216;-1.698;2023-11-19T13:46:07;28.35;;;19.70;;
16862;SDS011;52193;48.216;-1.698;2023-11-19T13:48:35;23.05;;;15.82;;
16862;SDS011;52193;48.216;-1.698;2023-11-19T13:51:02;22.48;;;13.30;;
16862;SDS011;52193;48.216;-1.698;2023-11-19T13:53:29;22.55;;;12.93;;
16862;SDS011;52193;48.216;-1.698;2023-11-19T13:55:55;26.52;;;13.32;;
16862;SDS011;52193;48.216;-1.698;2023-11-19T13:58:23;19.55;;;12.55;;
16862;SDS011;52193;48.216;-1.698;2023-11-19T14:00:50;22.83;;;12.70;;
16862;SDS011;52193;48.216;-1.698;2023-11-19T14:03:17;23.25;;;12.98;;
16862;SDS011;52193;48.216;-1.698;2023-11-19T14:05:43;18.02;;;12.00;;
16862;SDS011;52193;48.216;-1.698;2023-11-19T14:08:10;23.63;;;12.57;;
16862;SDS011;52193;48.216;-1.698;2023-11-19T14:10:37;26.00;;;12.90;;
16862;SDS011;52193;48.216;-1.698;2023-11-19T14:13:05;19.80;;;12.10;;
16862;SDS011;52193;48.216;-1.698;2023-11-19T14:15:34;23.88;;;11.90;;
16862;SDS011;52193;48.216;-1.698;2023-11-19T14:18:01;21.90;;;12.15;;
16862;SDS011;52193;48.216;-1.698;2023-11-19T14:20:28;22.20;;;11.95;;
16862;SDS011;52193;48.216;-1.698;2023-11-19T14:22:55;23.67;;;11.90;;